• Join FlightAware (Why Join?)
  • Login
  • US Flag 
11:50PM EDT


 

Airport Tracker/Info


-or-


 

Live Flight TrackerFlight Track Log ✈ JAL97 ✈ 31-Jan-2014 ✈ RJTT / HND - RCSS / TSA

Flight Track Log - Related Links

Times and Time Zones

All times are in EST time to prevent confusion due to time zone crossing. See the JAL97 flight status page for this flight to view local times or setup timezone preferences in your user account.

Time Position Orientation Groundspeed Altitude Reporting Facility
EST Latitude Longitude Course Direction KTS MPH feet Rate Location/Type
09:05PM 35.5420 139.8580 113° Southeast 167 192 2,600  Level FlightAware ADS-B
09:05PM 35.5370 139.8730 112° Southeast 171 197 3,400 2,640 Climbing FlightAware ADS-B
09:05PM 35.5330 139.8840 114° Southeast 183 211 3,900 2,160 Climbing FlightAware ADS-B
09:06PM 35.5280 139.8920 128° Southeast 191 220 4,200 1,620 Climbing FlightAware ADS-B
09:06PM 35.5210 139.8960 155° Southeast 202 232 4,400 840 Climbing FlightAware ADS-B
09:06PM 35.5190 139.8970 158° South 209 241 4,400 1,380 Level FlightAware ADS-B
09:06PM 35.5090 139.8980 175° South 214 246 4,700 2,280 Climbing FlightAware ADS-B
09:06PM 35.5030 139.8960 195° South 218 251 4,900 1,800 Climbing FlightAware ADS-B
09:06PM 35.4990 139.8930 211° Southwest 221 254 5,000 2,160 Climbing FlightAware ADS-B
09:06PM 35.4930 139.8880 214° Southwest 231 266 5,300 2,400 Climbing FlightAware ADS-B
09:06PM 35.4770 139.8740 215° Southwest 251 289 6,000 2,880 Climbing FlightAware ADS-B
09:07PM 35.4590 139.8600 212° Southwest 258 297 7,000 3,480 Climbing FlightAware ADS-B
09:07PM 35.4400 139.8450 213° Southwest 266 306 8,100 3,660 Climbing FlightAware ADS-B
09:07PM 35.4240 139.8320 214° Southwest 266 306 9,200 3,540 Climbing FlightAware ADS-B
09:08PM 35.3910 139.8060 213° Southwest 272 313 10,900 2,880 Climbing FlightAware ADS-B
09:08PM 35.3540 139.7780 212° Southwest 297 342 12,300 2,340 Climbing FlightAware ADS-B
09:09PM 35.3160 139.7470 214° Southwest 313 360 13,500 2,820 Climbing FlightAware ADS-B
09:10PM 35.2780 139.7010 225° Southwest 309 356 15,600 3,300 Climbing FlightAware ADS-B
09:10PM 35.2490 139.6620 228° Southwest 311 358 17,200 3,240 Climbing FlightAware ADS-B
09:10PM 35.2320 139.6270 239° Southwest 303 349 18,600 3,120 Climbing FlightAware ADS-B
09:11PM 35.2240 139.5990 251° West 301 346 19,400 3,000 Climbing FlightAware ADS-B
09:11PM 35.2194 139.5729 258° West 304 350 20,200 2,640 Climbing FlightAware ADS-B (RJTF)
09:11PM 35.2150 139.5510 256° West 309 356 20,700 2,400 Climbing FlightAware ADS-B
09:12PM 35.2103 139.5206 259° West 313 360 21,500 2,940 Climbing FlightAware ADS-B (RJTF)
09:12PM 35.1981 139.4464 259° West 323 372 23,600 2,640 Climbing FlightAware ADS-B (RJTF)
09:13PM 35.1889 139.3899 259° West 333 383 24,800 2,220 Climbing FlightAware ADS-B (RJTF)
09:14PM 35.1741 139.3009 259° West 345 397 26,600 2,400 Climbing FlightAware ADS-B (RJTF)
09:16PM 35.0868 139.1057 241° Southwest  Level Estimated
09:17PM 35.0419 139.0057 241° Southwest  Level Estimated
09:18PM 34.9969 138.9058 241° Southwest  Level Estimated
09:19PM 34.9519 138.8061 241° Southwest  Level Estimated
09:20PM 34.9067 138.7065 241° Southwest  Level Estimated
09:21PM 34.8615 138.6069 241° Southwest  Level Estimated
09:22PM 34.8162 138.5075 241° Southwest  Level Estimated
09:23PM 34.7708 138.4082 241° Southwest  Level Estimated
09:24PM 34.7253 138.3090 241° Southwest  Level Estimated
09:25PM 34.6798 138.2099 241° Southwest  Level Estimated
09:26PM 34.6342 138.1109 241° Southwest  Level Estimated
09:27PM 34.5885 138.0120 241° Southwest  Level Estimated
09:28PM 34.5427 137.9133 241° Southwest  Level Estimated
09:29PM 34.4968 137.8146 241° Southwest  Level Estimated
09:30PM 34.4509 137.7161 241° Southwest  Level Estimated
09:31PM 34.4037 137.6151 240° Southwest  Level Estimated
09:32PM 34.3564 137.5143 240° Southwest  Level Estimated
09:33PM 34.3091 137.4136 240° Southwest  Level Estimated
09:34PM 34.2617 137.3130 240° Southwest  Level Estimated
09:35PM 34.2141 137.2125 240° Southwest  Level Estimated
09:36PM 34.1665 137.1121 240° Southwest  Level Estimated
09:37PM 34.1189 137.0119 240° Southwest  Level Estimated
09:38PM 34.0711 136.9117 240° Southwest  Level Estimated
09:39PM 34.0233 136.8117 240° Southwest  Level Estimated
09:40PM 33.9753 136.7118 240° Southwest  Level Estimated
09:41PM 33.9273 136.6120 240° Southwest  Level Estimated
09:42PM 33.8793 136.5123 240° Southwest  Level Estimated
09:43PM 33.8311 136.4127 240° Southwest  Level Estimated
09:44PM 33.7829 136.3132 240° Southwest  Level Estimated
09:45PM 33.7346 136.2139 240° Southwest  Level Estimated
09:46PM 33.6861 136.1147 240° Southwest  Level Estimated
09:47PM 33.6377 136.0155 240° Southwest  Level Estimated
09:48PM 33.5891 135.9165 240° Southwest  Level Estimated
09:49PM 33.5405 135.8176 239° Southwest  Level Estimated
09:50PM 33.4917 135.7188 239° Southwest  Level Estimated
09:51PM 33.4430 135.6201 239° Southwest  Level Estimated
09:52PM 33.3941 135.5215 239° Southwest  Level Estimated
09:53PM 33.3451 135.4231 239° Southwest  Level Estimated
09:54PM 33.2951 135.3227 239° Southwest  Level Estimated
09:55PM 33.2449 135.2224 239° Southwest  Level Estimated
09:56PM 33.1947 135.1222 239° Southwest  Level Estimated
09:57PM 33.1444 135.0222 239° Southwest  Level Estimated
09:58PM 33.0941 134.9223 239° Southwest  Level Estimated
09:59PM 33.0436 134.8224 239° Southwest  Level Estimated
10:00PM 32.9931 134.7227 239° Southwest  Level Estimated
10:01PM 32.9425 134.6231 239° Southwest  Level Estimated
10:02PM 32.8918 134.5237 239° Southwest  Level Estimated
10:03PM 32.8410 134.4243 239° Southwest  Level Estimated
10:04PM 32.7902 134.3251 239° Southwest  Level Estimated
10:05PM 32.7390 134.2254 239° Southwest  Level Estimated
10:06PM 32.6877 134.1259 239° Southwest  Level Estimated
10:07PM 32.6364 134.0265 239° Southwest  Level Estimated
10:08PM 32.5850 133.9272 238° Southwest  Level Estimated
10:09PM 32.5335 133.8280 238° Southwest  Level Estimated
10:10PM 32.4819 133.7289 238° Southwest  Level Estimated
10:11PM 32.4302 133.6299 238° Southwest  Level Estimated
10:12PM 32.3785 133.5311 238° Southwest  Level Estimated
10:13PM 32.3267 133.4323 238° Southwest  Level Estimated
10:14PM 32.2748 133.3337 238° Southwest  Level Estimated
10:15PM 32.2228 133.2352 238° Southwest  Level Estimated
10:16PM 32.1708 133.1368 238° Southwest  Level Estimated
10:17PM 32.1187 133.0385 238° Southwest  Level Estimated
10:18PM 32.0665 132.9403 238° Southwest  Level Estimated
10:19PM 32.0142 132.8423 238° Southwest  Level Estimated
10:20PM 31.9619 132.7443 238° Southwest  Level Estimated
10:21PM 31.9095 132.6465 238° Southwest  Level Estimated
10:22PM 31.8570 132.5488 238° Southwest  Level Estimated
10:23PM 31.8044 132.4511 238° Southwest  Level Estimated
10:24PM 31.7518 132.3536 238° Southwest  Level Estimated
10:25PM 31.6990 132.2562 238° Southwest  Level Estimated
10:26PM 31.6462 132.1590 238° Southwest  Level Estimated
10:27PM 31.5934 132.0618 237° Southwest  Level Estimated
10:28PM 31.5404 131.9647 237° Southwest  Level Estimated
10:29PM 31.4874 131.8678 237° Southwest  Level Estimated
10:30PM 31.4344 131.7709 237° Southwest  Level Estimated
10:31PM 31.3812 131.6742 237° Southwest  Level Estimated
10:32PM 31.3280 131.5776 237° Southwest  Level Estimated
10:33PM 31.2747 131.4811 237° Southwest  Level Estimated
10:34PM 31.2213 131.3847 237° Southwest  Level Estimated
10:35PM 31.1664 131.2858 237° Southwest  Level Estimated
10:36PM 31.1115 131.1870 237° Southwest  Level Estimated
10:37PM 31.0565 131.0884 237° Southwest  Level Estimated
10:38PM 31.0014 130.9899 237° Southwest  Level Estimated
10:39PM 30.9462 130.8915 237° Southwest  Level Estimated
10:40PM 30.8909 130.7932 237° Southwest  Level Estimated
10:41PM 30.8356 130.6950 237° Southwest  Level Estimated
10:42PM 30.7802 130.5969 237° Southwest  Level Estimated
10:43PM 30.7248 130.4989 237° Southwest  Level Estimated
10:44PM 30.6692 130.4011 237° Southwest  Level Estimated
10:45PM 30.6136 130.3034 237° Southwest  Level Estimated
10:46PM 30.5579 130.2057 236° Southwest  Level Estimated
10:47PM 30.5021 130.1082 236° Southwest  Level Estimated
10:48PM 30.4463 130.0108 236° Southwest  Level Estimated
10:49PM 30.3904 129.9135 236° Southwest  Level Estimated
10:50PM 30.3344 129.8164 236° Southwest  Level Estimated
10:51PM 30.2784 129.7193 236° Southwest  Level Estimated
10:52PM 30.2222 129.6223 236° Southwest  Level Estimated
10:53PM 30.1660 129.5255 236° Southwest  Level Estimated
10:54PM 30.1085 129.4267 236° Southwest  Level Estimated
10:55PM 30.0510 129.3279 236° Southwest  Level Estimated
10:56PM 29.9933 129.2293 236° Southwest  Level Estimated
10:57PM 29.9356 129.1308 236° Southwest  Level Estimated
10:58PM 29.8778 129.0324 236° Southwest  Level Estimated
10:59PM 29.8200 128.9341 236° Southwest  Level Estimated
11:00PM 29.7620 128.8360 236° Southwest  Level Estimated
11:01PM 29.7040 128.7379 236° Southwest  Level Estimated
11:02PM 29.6459 128.6400 236° Southwest  Level Estimated
11:03PM 29.5878 128.5422 236° Southwest  Level Estimated
11:04PM 29.5296 128.4445 236° Southwest  Level Estimated
11:05PM 29.4713 128.3469 236° Southwest  Level Estimated
11:06PM 29.4123 128.2483 236° Southwest  Level Estimated
11:07PM 29.3532 128.1499 235° Southwest  Level Estimated
11:08PM 29.2940 128.0516 235° Southwest  Level Estimated
11:09PM 29.2348 127.9533 235° Southwest  Level Estimated
11:10PM 29.1755 127.8552 235° Southwest  Level Estimated
11:11PM 29.1161 127.7572 235° Southwest  Level Estimated
11:12PM 29.0567 127.6594 235° Southwest  Level Estimated
11:13PM 28.9972 127.5616 235° Southwest  Level Estimated
11:14PM 28.9376 127.4640 235° Southwest  Level Estimated
11:15PM 28.8779 127.3664 235° Southwest  Level Estimated
11:16PM 28.8182 127.2690 235° Southwest  Level Estimated
11:17PM 28.7584 127.1717 235° Southwest  Level Estimated
11:18PM 28.6986 127.0745 235° Southwest  Level Estimated
11:19PM 28.6386 126.9774 235° Southwest  Level Estimated
11:20PM 28.5786 126.8804 235° Southwest  Level Estimated
11:21PM 28.5186 126.7835 235° Southwest  Level Estimated
11:22PM 28.4584 126.6868 235° Southwest  Level Estimated
11:23PM 28.3982 126.5901 235° Southwest  Level Estimated
11:24PM 28.3369 126.4920 235° Southwest  Level Estimated
11:25PM 28.2756 126.3939 235° Southwest  Level Estimated
11:26PM 28.2141 126.2960 235° Southwest  Level Estimated
11:27PM 28.1526 126.1981 235° Southwest  Level Estimated
11:28PM 28.0911 126.1004 234° Southwest  Level Estimated
11:29PM 28.0294 126.0028 234° Southwest  Level Estimated
11:30PM 27.9677 125.9053 234° Southwest  Level Estimated
11:31PM 27.9059 125.8080 234° Southwest  Level Estimated
11:32PM 27.8441 125.7107 234° Southwest  Level Estimated
11:33PM 27.7822 125.6135 234° Southwest  Level Estimated
11:34PM 27.7202 125.5165 234° Southwest  Level Estimated
11:35PM 27.6581 125.4195 234° Southwest  Level Estimated
11:36PM 27.5960 125.3227 234° Southwest  Level Estimated
11:37PM 27.5338 125.2260 234° Southwest  Level Estimated
11:38PM 27.4716 125.1294 234° Southwest  Level Estimated
11:39PM 27.4093 125.0329 234° Southwest  Level Estimated
11:40PM 27.3458 124.9349 234° Southwest  Level Estimated
11:41PM 27.2823 124.8369 234° Southwest  Level Estimated
11:42PM 27.2187 124.7391 234° Southwest  Level Estimated
11:43PM 27.1550 124.6414 234° Southwest  Level Estimated
11:44PM 27.0913 124.5438 234° Southwest  Level Estimated
11:45PM 27.0275 124.4463 234° Southwest  Level Estimated
11:46PM 26.9636 124.3490 234° Southwest  Level Estimated
11:47PM 26.8997 124.2517 234° Southwest  Level Estimated
11:48PM 26.8357 124.1546 234° Southwest  Level Estimated
11:49PM 26.7717 124.0575 234° Southwest  Level Estimated
11:50PM 26.7075 123.9606 233° Southwest  Level Estimated
11:51PM 26.6433 123.8638 233° Southwest  Level Estimated
11:52PM 26.5791 123.7671 233° Southwest  Level Estimated
11:53PM 26.5147 123.6705 233° Southwest  Level Estimated
11:54PM 26.4504 123.5740 233° Southwest  Level Estimated
11:55PM 26.3859 123.4776 233° Southwest  Level Estimated
11:56PM 26.3214 123.3813 233° Southwest  Level Estimated
11:57PM 26.2568 123.2851 233° Southwest  Level Estimated
11:58PM 26.1922 123.1890 233° Southwest  Level Estimated
11:59PM 26.1275 123.0931 233° Southwest  Level Estimated
12:00AM 26.0627 122.9972 233° Southwest  Level Estimated
12:01AM 25.9978 122.9015 233° Southwest  Level Estimated
12:02AM 25.9329 122.8058 233° Southwest  Level Estimated
12:03AM 25.8680 122.7103 233° Southwest  Level Estimated
12:04AM 25.8029 122.6149 233° Southwest  Level Estimated
12:05AM 25.7379 122.5195 233° Southwest  Level Estimated
12:06AM 25.6727 122.4243 233° Southwest  Level Estimated
12:07AM 25.6075 122.3292 233° Southwest  Level Estimated